Terminal Aerodrome Forecast
Issued by NWS

Home | Current Version | Previous Version | Text Only | Print | Product List | Glossary On
Versions: 1 2 3 4 5 6 7 8 9 10 11 12 13 14 15 16
000
FTUS44 KLZK 171100
TAFADF
TAF
KADF 171140Z 1712/1812 VRB03KT P6SM SCT012
      TEMPO 1712/1715 3SM BR OVC005
     FM171500 12003KT P6SM SCT020
     FM171800 21004KT P6SM SCT035
     FM180000 VRB03KT P6SM BKN250=

USA.gov is the U.S. government's official web portal to all federal, state and local government web resources and services.